Wintergreen, VA

4:28 PM EDT on August 04, 2015 (GMT -0400)
Spruce Creek Park | | Change Station
CLOSE
Current Station
Personal Weather Station
Location: Nellysford, VA
Elevation: 843 ft
Nearby Weather Stations

Elev 843 ft 37.89 °N, 78.90 °W | Updated 10 seconds ago

Partly Cloudy
Partly Cloudy
90.1 °F
Feels Like 99 °F
N
2.0
Wind Variable Wind from ESE
Gusts 9.0 mph

Today
High -- | Low -- °F
--% Chance of Precip.
Yesterday
High -- | Low -- °F
Precip. -- in
6:21 AM 8:21 PM
Waning Gibbous, 74% visible
Pressure 29.89 in
Visibility 10.0 miles
Clouds Clear
Heat Index 99 °F
Dew Point 74 °F
Humidity 59%
Rainfall 0.00 in
Snow Depth Not available.
UV 8 out of 12
Pollen 6.70 out of 12
Air Quality Not available.
Flu Activity Not available.
METAR KCHO 041953Z VRB04KT 10SM CLR 32/18 A2991 RMK AO2 SLP120 T03220183

More Conditions Fewer Conditions

Pressure 29.89 in
Visibility 10.0 miles
Clouds Clear
Heat Index 99 °F
Dew Point 74 °F
Humidity 59%
Rainfall 0.00 in
Snow Depth Not available.
UV 8 out of 12
Pollen 6.70 out of 12
Air Quality Not available.
Flu Activity Not available.
METAR KCHO 041953Z VRB04KT 10SM CLR 32/18 A2991 RMK AO2 SLP120 T03220183

More Conditions Fewer Conditions

Nowcast | as of 4:23 PM EDT on August 4, 2015

a line of strong thunderstorms will affect central Nelson County... At 423 PM EDT...a line of strong thunderstorms was along a line extending from near Lowesville to Clifford...and moving northeast at 30 mph. Wind gusts up to 50 mph are possible with these storms. Locations impacted include... Shipman...Tyro...Bryant...Lovingston...Tye River...Arrington... Jonesboro...Roseland...Piney River and Massies Mill. Torrential rainfall is also occurring with this storm...and will cause ponding of water on roadways. Lat...Lon 3767 7897 3768 7897 3768 7898 3770 7899 3770 7903 3772 7907 3778 7907 3788 7895 3768 7874 3764 7895 time...Mot...loc 2023z 236deg 27kt 3772 7911 3764 7905

×

10-Day Weather Forecast

×

Almanac

Astronomy

Aug. 04, 2015 Rise Set
Actual Time
Civil Twilight
Nautical Twilight
Astronomical Twilight
Moon
Length of Visible Light
Length of Day
Tomorrow will be .
, % of the Moon is Illuminated

Today's Extremes

State Highs State Lows

Community

WunderPhotos

Upload Photos

1,843,963 photos uploaded!

WunderBlogs® & News

Nearby

Air Quality

  Air Quality AQ Index Pollutant
Not available.

Snow Depth

Station Depth Elevation

Earthquake Activity

City Distance Mag. Time & Date
Minimum magnitude displayed is 2.5.

Coastal Water Temperatures

Place Temperature

Stations

Nearby Weather Stations

Station Location Temp. Windchill Dew Point Humidity Wind Precip. Elev Updated Type